Time;durP1;ratioP1;P1;durP2;ratioP2;P2;SDS_P1;SDS_P2;PMS_P1;PMS_P2;Temp;Humidity;BMP_temperature;BMP_pressure;BME280_temperature;BME280_humidity;BME280_pressure;Samples;Min_cycle;Max_cycle;Signal;HPM_P1;HPM_P2
2021/10/13 00:49:03;;;;;;;13.98;9.95;;;;;;;3.28;83.00;100475.61;1843076;77;22645;-79
2021/10/13 00:51:30;;;;;;;18.23;13.90;;;;;;;3.22;83.02;100473.47;1791016;78;20982;-81
2021/10/13 00:53:57;;;;;;;19.35;14.05;;;;;;;3.20;83.05;100475.88;1786826;80;21180;-81
2021/10/13 00:56:23;;;;;;;18.00;14.03;;;;;;;3.18;83.05;100475.14;1790112;80;21561;-80
2021/10/13 00:58:49;;;;;;;9.65;6.25;;;;;;;3.15;83.10;100482.82;1759215;81;21023;-81
2021/10/13 01:01:26;;;;;;;13.03;4.90;;;;;;;3.12;83.11;100485.70;1755988;81;20963;-80
2021/10/13 01:04:03;;;;;;;9.75;6.28;;;;;;;3.10;83.15;100488.11;1786503;80;21498;-80
2021/10/13 01:07:08;;;;;;;8.85;5.08;;;;;;;3.07;83.16;100499.70;1753950;80;21808;-80
2021/10/13 01:10:11;;;;;;;7.58;4.55;;;;;;;3.04;83.19;100493.36;1740535;80;20986;-81
2021/10/13 01:13:23;;;;;;;9.68;5.83;;;;;;;3.03;83.22;100495.63;1786889;80;21455;-80
2021/10/13 01:16:15;;;;;;;11.43;5.37;;;;;;;3.01;83.22;100490.97;1786684;80;20998;-81
2021/10/13 01:18:50;;;;;;;14.87;5.25;;;;;;;2.98;83.24;100488.58;1786891;80;21031;-81
2021/10/13 01:22:03;;;;;;;9.35;4.50;;;;;;;2.96;83.27;100494.42;1786972;80;21105;-81
2021/10/13 01:25:04;;;;;;;6.00;3.60;;;;;;;2.93;83.29;100497.30;1718070;83;21485;-81
2021/10/13 01:28:00;;;;;;;7.72;4.40;;;;;;;2.90;83.30;100496.22;1689073;85;21856;-81
2021/10/13 01:30:34;;;;;;;9.55;4.53;;;;;;;2.90;83.33;100496.22;1771950;80;21034;-81
2021/10/13 01:33:06;;;;;;;9.33;4.58;;;;;;;2.89;83.35;100505.07;1786845;80;20999;-80
2021/10/13 01:35:33;;;;;;;8.55;4.70;;;;;;;2.87;83.35;100504.37;1786545;80;21184;-80
2021/10/13 01:38:03;;;;;;;10.63;5.37;;;;;;;2.87;83.37;100503.05;1786831;80;20987;-80
2021/10/13 01:40:31;;;;;;;16.52;11.08;;;;;;;2.87;83.40;100510.95;1786832;80;21073;-80
2021/10/13 01:43:00;;;;;;;15.63;12.07;;;;;;;2.87;83.42;100507.84;1786916;80;21472;-80
2021/10/13 01:45:26;;;;;;;17.87;14.35;;;;;;;2.88;83.43;100513.95;1757388;80;21066;-80
2021/10/13 01:47:52;;;;;;;15.28;10.23;;;;;;;2.88;83.47;100511.31;1757798;81;21124;-80
2021/10/13 01:50:19;;;;;;;13.62;9.03;;;;;;;2.91;83.48;100516.34;1758018;81;21500;-80
2021/10/13 01:52:48;;;;;;;9.50;6.42;;;;;;;2.95;83.51;100516.47;1758107;81;21031;-80
2021/10/13 01:55:16;;;;;;;9.58;6.17;;;;;;;3.00;83.52;100520.41;1758224;81;21468;-80
2021/10/13 01:57:44;;;;;;;6.47;5.37;;;;;;;3.05;83.54;100525.81;1758287;81;21097;-80
2021/10/13 02:00:11;;;;;;;12.10;4.90;;;;;;;3.10;83.56;100531.06;1757811;81;21123;-80
2021/10/13 02:02:37;;;;;;;11.53;5.12;;;;;;;3.15;83.58;100530.25;1757329;81;21031;-80
2021/10/13 02:05:05;;;;;;;10.53;6.28;;;;;;;3.17;83.61;100525.68;1757744;81;21007;-80
2021/10/13 02:07:31;;;;;;;10.25;5.87;;;;;;;3.20;83.64;100530.70;1757447;81;20996;-81
2021/10/13 02:09:59;;;;;;;11.70;5.83;;;;;;;3.22;83.65;100534.08;1757697;81;21026;-80
2021/10/13 02:12:25;;;;;;;9.80;5.17;;;;;;;3.25;83.68;100529.04;1757620;81;21136;-80
2021/10/13 02:14:51;;;;;;;13.05;4.83;;;;;;;3.27;83.72;100534.55;1757488;81;20999;-80
2021/10/13 02:17:17;;;;;;;9.55;4.22;;;;;;;3.29;83.74;100535.75;1757624;81;21036;-80
2021/10/13 02:19:45;;;;;;;12.28;5.00;;;;;;;3.29;83.75;100538.39;1757834;81;21082;-80
2021/10/13 02:22:11;;;;;;;10.93;5.25;;;;;;;3.30;83.77;100544.03;1757952;81;21319;-80
2021/10/13 02:24:41;;;;;;;9.03;5.33;;;;;;;3.28;83.79;100540.66;1757342;81;21159;-80
2021/10/13 02:27:26;;;;;;;9.05;4.80;;;;;;;3.26;83.81;100543.42;1757327;81;21070;-80
2021/10/13 02:29:52;;;;;;;10.15;4.87;;;;;;;3.22;83.85;100545.09;1757652;81;21491;-80
2021/10/13 02:32:18;;;;;;;11.50;6.20;;;;;;;3.18;83.87;100544.97;1757644;81;21028;-80
2021/10/13 02:34:44;;;;;;;15.90;12.50;;;;;;;3.14;83.90;100548.32;1757622;81;21059;-81
2021/10/13 02:37:11;;;;;;;30.10;23.30;;;;;;;3.10;83.91;100545.56;1756326;81;21535;-80
2021/10/13 02:39:37;;;;;;;30.97;20.95;;;;;;;3.03;83.93;100544.36;1757756;81;20984;-80
2021/10/13 02:42:03;;;;;;;22.55;15.40;;;;;;;2.99;83.93;100550.34;1757570;81;20985;-80
2021/10/13 02:44:29;;;;;;;19.23;10.95;;;;;;;2.95;83.97;100550.71;1757297;80;21515;-80
2021/10/13 02:47:01;;;;;;;12.93;7.03;;;;;;;2.94;83.97;100552.98;1757640;81;20996;-80
2021/10/13 02:49:51;;;;;;;12.05;7.85;;;;;;;2.90;83.98;100555.48;1757209;81;21986;-80
2021/10/13 02:52:35;;;;;;;11.85;7.03;;;;;;;2.89;84.01;100557.74;1757805;81;20943;-80
2021/10/13 02:55:07;;;;;;;10.80;7.37;;;;;;;2.84;84.03;100559.91;1757776;81;20996;-80
2021/10/13 02:57:41;;;;;;;13.13;7.78;;;;;;;2.82;84.04;100565.28;1757535;81;21007;-80
2021/10/13 03:00:08;;;;;;;12.95;6.33;;;;;;;2.80;84.04;100566.36;1757834;81;21476;-80
2021/10/13 03:02:57;;;;;;;8.13;5.45;;;;;;;2.78;84.04;100561.70;1757592;81;21987;-80
2021/10/13 03:05:23;;;;;;;13.43;4.47;;;;;;;2.79;84.06;100568.63;1757842;81;21031;-80
2021/10/13 03:07:49;;;;;;;9.55;3.27;;;;;;;2.79;84.09;100565.98;1757377;81;21087;-80
2021/10/13 03:10:15;;;;;;;7.37;3.17;;;;;;;2.79;84.09;100570.78;1757805;81;21028;-80
2021/10/13 03:12:54;;;;;;;7.50;3.40;;;;;;;2.79;84.10;100573.89;1757627;81;21015;-80
2021/10/13 03:15:20;;;;;;;8.23;3.95;;;;;;;2.77;84.11;100574.02;1757749;81;21087;-80
2021/10/13 03:17:50;;;;;;;5.55;3.80;;;;;;;2.76;84.12;100579.39;1757575;81;20984;-80
2021/10/13 03:20:16;;;;;;;6.90;3.70;;;;;;;2.74;84.12;100580.00;1756977;81;21023;-80
2021/10/13 03:22:43;;;;;;;10.03;4.50;;;;;;;2.73;84.12;100583.10;1757773;81;21582;-80
2021/10/13 03:25:09;;;;;;;9.73;5.45;;;;;;;2.73;84.14;100579.63;1757621;81;21028;-80
2021/10/13 03:27:35;;;;;;;12.60;8.85;;;;;;;2.74;84.16;100589.22;1757527;81;21122;-80
2021/10/13 03:30:01;;;;;;;16.07;12.33;;;;;;;2.75;84.17;100584.28;1757655;81;21311;-80
2021/10/13 03:32:27;;;;;;;19.57;14.05;;;;;;;2.78;84.17;100590.16;1757678;81;20980;-80
2021/10/13 03:34:53;;;;;;;17.80;12.70;;;;;;;2.83;84.21;100581.92;1757563;81;21015;-80
2021/10/13 03:37:19;;;;;;;12.82;10.08;;;;;;;2.87;84.19;100593.44;1757610;81;21050;-80
2021/10/13 03:39:50;;;;;;;12.53;7.70;;;;;;;2.89;84.21;100595.45;1757716;81;21838;-80
2021/10/13 03:42:16;;;;;;;9.95;7.70;;;;;;;2.93;84.24;100594.28;1757430;81;21500;-80
2021/10/13 03:44:42;;;;;;;11.73;7.35;;;;;;;2.96;84.24;100601.09;1757486;81;21495;-80
2021/10/13 03:47:09;;;;;;;12.58;7.60;;;;;;;2.99;84.25;100605.66;1757502;81;20984;-80
2021/10/13 03:49:35;;;;;;;13.45;7.83;;;;;;;3.04;84.28;100605.31;1729497;82;21079;-80
2021/10/13 03:52:03;;;;;;;12.18;7.40;;;;;;;3.08;84.29;100604.13;1756369;81;21173;-80
2021/10/13 03:54:29;;;;;;;17.35;8.08;;;;;;;3.11;84.29;100601.73;1756271;81;21040;-80
2021/10/13 03:56:55;;;;;;;13.03;6.45;;;;;;;3.12;84.31;100604.73;1756461;81;21046;-80
2021/10/13 03:59:21;;;;;;;9.28;5.75;;;;;;;3.15;84.32;100606.66;1756380;81;20988;-81
2021/10/13 04:01:48;;;;;;;9.43;5.78;;;;;;;3.16;84.34;100609.66;1756607;81;21055;-80
2021/10/13 04:04:14;;;;;;;11.50;6.60;;;;;;;3.18;84.35;100614.32;1756020;81;21108;-80
2021/10/13 04:06:40;;;;;;;10.32;6.65;;;;;;;3.19;84.36;100607.26;1756039;81;21725;-81
2021/10/13 04:09:07;;;;;;;13.18;7.10;;;;;;;3.21;84.38;100619.35;1756328;80;21007;-80
2021/10/13 04:11:33;;;;;;;16.82;6.85;;;;;;;3.25;84.39;100626.07;1756226;81;20996;-80
2021/10/13 04:13:59;;;;;;;12.47;7.08;;;;;;;3.27;84.41;100625.46;1756494;81;21003;-81
2021/10/13 04:16:25;;;;;;;13.13;6.95;;;;;;;3.29;84.42;100627.52;1756353;81;21476;-80
2021/10/13 04:18:51;;;;;;;16.48;7.10;;;;;;;3.32;84.43;100631.70;1756422;81;21035;-80
2021/10/13 04:21:17;;;;;;;21.12;12.78;;;;;;;3.35;84.44;100636.27;1756269;81;20959;-81
2021/10/13 04:23:43;;;;;;;27.90;14.85;;;;;;;3.37;84.45;100636.16;1756430;81;21094;-81
2021/10/13 04:26:09;;;;;;;27.05;16.93;;;;;;;3.39;84.45;100642.98;1756270;81;20996;-80
2021/10/13 04:28:35;;;;;;;15.60;10.23;;;;;;;3.42;84.45;100641.89;1756623;81;21164;-80
2021/10/13 04:31:01;;;;;;;12.45;7.20;;;;;;;3.47;84.50;100639.28;1756426;81;21468;-80
2021/10/13 04:33:27;;;;;;;12.85;8.60;;;;;;;3.50;84.47;100640.83;1756444;81;20984;-80
2021/10/13 04:35:53;;;;;;;13.90;8.15;;;;;;;3.52;84.46;100650.30;1756371;81;20971;-80
2021/10/13 04:38:19;;;;;;;15.75;6.90;;;;;;;3.55;84.51;100640.02;1756172;81;20992;-81
2021/10/13 04:40:45;;;;;;;14.60;7.42;;;;;;;3.57;84.52;100639.88;1756250;81;21161;-80
2021/10/13 04:43:11;;;;;;;10.25;5.78;;;;;;;3.60;84.54;100635.67;1756223;81;20975;-80
2021/10/13 04:45:37;;;;;;;8.15;5.42;;;;;;;3.61;84.52;100642.16;1756172;81;20984;-80
2021/10/13 04:48:04;;;;;;;11.00;5.80;;;;;;;3.64;84.55;100643.23;1755821;80;20979;-80
2021/10/13 04:50:30;;;;;;;9.05;4.90;;;;;;;3.66;84.56;100643.13;1791834;80;21054;-80
2021/10/13 04:52:56;;;;;;;7.75;5.22;;;;;;;3.68;84.58;100649.11;1792195;80;22553;-81
2021/10/13 04:55:22;;;;;;;15.80;6.37;;;;;;;3.69;84.57;100641.56;1791911;79;21488;-80
2021/10/13 04:57:48;;;;;;;11.03;6.12;;;;;;;3.70;84.58;100644.55;1791933;79;20951;-80
2021/10/13 05:00:14;;;;;;;17.67;10.48;;;;;;;3.72;84.60;100650.55;1791872;80;20987;-81
2021/10/13 05:02:40;;;;;;;24.60;13.30;;;;;;;3.74;84.59;100653.89;1792012;79;21057;-80
2021/10/13 05:05:07;;;;;;;27.30;15.38;;;;;;;3.74;84.61;100656.53;1792014;80;21610;-81
2021/10/13 05:07:33;;;;;;;35.25;16.07;;;;;;;3.77;84.63;100664.20;1791817;80;20975;-81
2021/10/13 05:09:59;;;;;;;33.70;18.23;;;;;;;3.77;84.63;100661.56;1792156;80;21041;-82
2021/10/13 05:12:25;;;;;;;34.25;12.43;;;;;;;3.78;84.62;100658.82;1791796;80;21523;-81
2021/10/13 05:14:51;;;;;;;28.02;10.68;;;;;;;3.81;84.64;100663.01;1792212;80;21082;-81
2021/10/13 05:17:17;;;;;;;16.57;5.87;;;;;;;3.79;84.63;100664.94;1791504;80;21175;-81
2021/10/13 05:19:43;;;;;;;24.18;14.43;;;;;;;3.78;84.65;100668.05;1792113;80;21058;-81
2021/10/13 05:22:09;;;;;;;32.73;15.58;;;;;;;3.78;84.66;100671.16;1791602;80;21030;-81
2021/10/13 05:24:35;;;;;;;24.95;11.45;;;;;;;3.79;84.67;100675.48;1792002;80;21023;-81
2021/10/13 05:27:01;;;;;;;17.65;8.85;;;;;;;3.81;84.67;100674.87;1791882;80;21055;-81
2021/10/13 05:29:27;;;;;;;10.80;7.12;;;;;;;3.82;84.67;100680.52;1791855;80;21169;-81
2021/10/13 05:31:53;;;;;;;7.10;5.78;;;;;;;3.83;84.67;100684.84;1791998;80;21008;-81
2021/10/13 05:34:19;;;;;;;9.63;7.25;;;;;;;3.84;84.69;100682.55;1791741;80;21124;-81
2021/10/13 05:36:45;;;;;;;14.28;7.42;;;;;;;3.84;84.70;100686.50;1792246;79;20887;-81
2021/10/13 05:39:11;;;;;;;10.95;7.20;;;;;;;3.85;84.69;100691.67;1791836;79;21011;-81
2021/10/13 05:41:37;;;;;;;11.93;7.42;;;;;;;3.87;84.68;100706.08;1791981;80;21139;-81
2021/10/13 05:44:04;;;;;;;13.18;7.20;;;;;;;3.89;84.71;100701.50;1791786;80;20975;-81
2021/10/13 05:46:30;;;;;;;20.32;6.25;;;;;;;3.89;84.71;100706.30;1792132;80;20983;-81
2021/10/13 05:48:56;;;;;;;13.53;6.35;;;;;;;3.93;84.71;100718.30;1792012;79;20963;-81
2021/10/13 05:51:22;;;;;;;10.18;5.67;;;;;;;3.95;84.71;100718.16;1791651;80;21006;-81
2021/10/13 05:53:48;;;;;;;15.50;6.53;;;;;;;3.97;84.74;100725.50;1792302;80;21140;-81
2021/10/13 05:56:14;;;;;;;14.98;6.70;;;;;;;4.00;84.73;100739.77;1791596;80;21018;-81
2021/10/13 05:58:41;;;;;;;13.60;6.53;;;;;;;4.01;84.72;100730.91;1792301;79;21444;-81
2021/10/13 06:01:07;;;;;;;19.48;10.50;;;;;;;4.05;84.75;100734.95;1792026;80;21046;-81
2021/10/13 06:03:33;;;;;;;26.40;13.38;;;;;;;4.10;84.76;100741.20;1791876;79;21090;-81
2021/10/13 06:05:59;;;;;;;28.15;17.45;;;;;;;4.13;84.78;100734.36;1792150;80;21031;-81
2021/10/13 06:08:25;;;;;;;23.85;10.25;;;;;;;4.15;84.78;100742.50;1792016;79;20983;-81
2021/10/13 06:10:51;;;;;;;32.42;20.02;;;;;;;4.20;84.79;100743.00;1792079;79;21086;-81
2021/10/13 06:13:17;;;;;;;49.70;25.55;;;;;;;4.25;84.80;100743.48;1791917;79;21042;-82
2021/10/13 06:15:43;;;;;;;38.80;21.82;;;;;;;4.32;84.78;100746.00;1792354;80;21518;-81
2021/10/13 06:18:10;;;;;;;19.42;11.03;;;;;;;4.39;84.80;100748.98;1792248;80;21851;-81
2021/10/13 06:20:36;;;;;;;20.30;9.78;;;;;;;4.43;84.80;100748.60;1791987;80;20963;-81
2021/10/13 06:23:03;;;;;;;17.25;7.05;;;;;;;4.48;84.80;100751.73;1791948;80;20999;-81
2021/10/13 06:25:29;;;;;;;17.60;6.15;;;;;;;4.53;84.79;100754.86;1792131;80;21031;-82
2021/10/13 06:27:55;;;;;;;11.53;6.03;;;;;;;4.59;84.79;100760.59;1792151;80;21571;-81
2021/10/13 06:30:21;;;;;;;15.63;7.67;;;;;;;4.63;84.79;100760.70;1792091;80;21916;-81
2021/10/13 06:32:47;;;;;;;11.48;6.05;;;;;;;4.69;84.78;100762.84;1785366;80;20995;-81
2021/10/13 06:35:13;;;;;;;13.10;6.30;;;;;;;4.81;84.77;100769.80;1776746;80;20907;-81
2021/10/13 06:37:39;;;;;;;13.65;6.10;;;;;;;4.85;84.77;100769.91;1775346;78;21047;-84
2021/10/13 06:40:06;;;;;;;9.58;5.22;;;;;;;4.84;84.82;100778.80;1760682;81;21067;-81
2021/10/13 06:42:32;;;;;;;11.45;4.30;;;;;;;4.81;84.81;100781.69;1763106;80;21072;-82
2021/10/13 06:44:58;;;;;;;8.45;4.65;;;;;;;4.81;84.83;100789.61;1785427;80;20984;-82
2021/10/13 06:47:26;;;;;;;16.32;8.80;;;;;;;4.91;84.82;100786.58;1766776;80;20987;-82
2021/10/13 06:49:52;;;;;;;27.82;13.75;;;;;;;5.20;84.79;100783.73;1726970;82;21066;-82
2021/10/13 06:52:19;;;;;;;18.55;9.48;;;;;;;5.69;84.73;100782.29;1724793;83;21019;-82
2021/10/13 06:54:45;;;;;;;13.88;6.08;;;;;;;6.11;84.67;100789.73;1723676;83;21161;-82
2021/10/13 06:57:11;;;;;;;11.03;6.03;;;;;;;6.32;84.70;100790.05;1696039;84;21749;-82
2021/10/13 06:59:37;;;;;;;9.75;4.72;;;;;;;6.28;84.72;100801.03;1723414;83;21042;-82
2021/10/13 07:02:03;;;;;;;11.50;5.70;;;;;;;6.19;84.72;100797.39;1695968;84;21042;-82
2021/10/13 07:04:29;;;;;;;9.83;5.53;;;;;;;6.06;84.70;100806.01;1725162;82;21000;-82
2021/10/13 07:06:55;;;;;;;13.30;8.13;;;;;;;5.90;84.66;100801.67;1725321;83;21119;-82
2021/10/13 07:09:21;;;;;;;17.07;11.50;;;;;;;5.83;84.65;100801.81;1724713;82;20900;-82
2021/10/13 07:11:47;;;;;;;13.55;9.65;;;;;;;5.84;84.60;100807.47;1725455;83;20983;-82
2021/10/13 07:14:15;;;;;;;10.88;6.37;;;;;;;5.87;84.58;100800.62;1694556;84;21523;-82
2021/10/13 07:16:41;;;;;;;12.45;6.62;;;;;;;5.91;84.52;100806.02;1694490;84;21117;-82
2021/10/13 07:19:07;;;;;;;15.63;6.85;;;;;;;5.95;84.47;100813.54;1724039;83;21173;-82
2021/10/13 07:21:33;;;;;;;30.72;10.10;;;;;;;6.01;84.44;100809.55;1695998;84;21011;-82
2021/10/13 07:23:59;;;;;;;25.35;11.80;;;;;;;6.05;84.41;100816.27;1729234;81;21578;-84
2021/10/13 07:26:25;;;;;;;19.55;8.38;;;;;;;6.05;84.39;100816.27;1736160;81;21471;-82
2021/10/13 07:28:51;;;;;;;26.05;11.85;;;;;;;6.10;84.38;100816.70;1755151;81;21059;-82
2021/10/13 07:31:17;;;;;;;52.33;22.00;;;;;;;6.20;84.35;100826.84;1747606;81;21091;-83
2021/10/13 07:33:44;;;;;;;26.15;12.30;;;;;;;6.30;84.36;100830.86;1736039;81;21019;-82
2021/10/13 07:36:11;;;;;;;32.70;13.93;;;;;;;6.34;84.31;100833.13;1725687;81;21504;-84
2021/10/13 07:38:37;;;;;;;20.37;7.37;;;;;;;6.36;84.26;100831.68;1712667;81;21015;-83
2021/10/13 07:41:03;;;;;;;46.08;15.15;;;;;;;6.33;84.23;100831.44;1725937;81;21029;-83
2021/10/13 07:43:30;;;;;;;17.10;7.70;;;;;;;6.36;84.21;100841.80;1731405;81;21052;-84
2021/10/13 07:45:56;;;;;;;12.40;5.47;;;;;;;6.41;84.18;100834.27;1725627;81;21079;-83
2021/10/13 07:48:24;;;;;;;15.88;5.25;;;;;;;6.50;84.20;100843.25;1731454;81;21072;-86
2021/10/13 07:50:52;;;;;;;7.05;2.65;;;;;;;6.60;84.16;100843.28;1730687;81;21087;-83
2021/10/13 07:53:18;;;;;;;12.73;4.62;;;;;;;6.71;84.12;100841.38;1742599;81;21049;-82
2021/10/13 07:55:44;;;;;;;9.30;3.90;;;;;;;6.85;84.11;100844.98;1725930;81;21148;-83
2021/10/13 07:58:10;;;;;;;18.02;5.40;;;;;;;7.08;84.08;100848.23;1732215;81;20993;-84
2021/10/13 08:00:36;;;;;;;63.08;17.23;;;;;;;7.15;84.01;100842.73;1725537;81;20921;-85
2021/10/13 08:03:02;;;;;;;73.85;21.65;;;;;;;7.15;83.96;100845.39;1726135;81;21132;-84
2021/10/13 08:05:28;;;;;;;53.30;15.38;;;;;;;7.03;83.87;100846.50;1730024;81;21083;-83
2021/10/13 08:07:54;;;;;;;35.35;9.98;;;;;;;6.90;83.88;100847.20;1726480;81;21175;-82
2021/10/13 08:10:20;;;;;;;18.30;6.00;;;;;;;6.76;83.86;100856.38;1728176;81;21017;-83
2021/10/13 08:12:46;;;;;;;23.25;7.47;;;;;;;6.62;83.77;100851.92;1732734;81;21008;-83
2021/10/13 08:15:12;;;;;;;18.90;6.22;;;;;;;6.59;83.75;100854.36;1738531;81;21468;-84
2021/10/13 08:17:39;;;;;;;16.37;5.92;;;;;;;6.57;83.70;100853.67;1747240;81;21048;-81
2021/10/13 08:20:08;;;;;;;8.05;4.05;;;;;;;6.61;83.67;100859.54;1746658;81;21285;-83
2021/10/13 08:22:34;;;;;;;19.70;8.88;;;;;;;6.75;83.63;100856.53;1743540;81;21527;-83
2021/10/13 08:25:00;;;;;;;12.65;4.85;;;;;;;7.12;83.72;100854.95;1736102;81;21570;-81
2021/10/13 08:27:26;;;;;;;7.22;3.80;;;;;;;7.53;83.65;100849.40;1726337;81;21037;-82
2021/10/13 08:29:52;;;;;;;11.28;7.03;;;;;;;7.61;83.53;100858.48;1741684;81;21058;-83
2021/10/13 08:32:18;;;;;;;22.55;11.48;;;;;;;7.75;83.54;100863.38;1739493;81;21126;-83
2021/10/13 08:37:36;;;;;;;12.07;6.67;;;;;;;7.99;83.40;100863.28;1842414;77;22263;-82
2021/10/13 08:40:04;;;;;;;10.50;5.17;;;;;;;8.03;83.24;100869.15;1826716;78;20930;-82
2021/10/13 08:42:30;;;;;;;8.43;4.40;;;;;;;8.00;83.18;100868.11;1826654;78;21279;-81
2021/10/13 08:44:57;;;;;;;9.05;4.20;;;;;;;8.10;83.14;100858.78;1826499;78;21010;-82
2021/10/13 08:47:23;;;;;;;11.00;4.47;;;;;;;8.15;83.02;100868.02;1790442;79;20991;-82
2021/10/13 08:49:51;;;;;;;9.18;4.53;;;;;;;8.17;82.94;100875.83;1790566;79;20990;-81
2021/10/13 08:52:17;;;;;;;6.95;3.95;;;;;;;8.02;82.80;100876.79;1790468;80;20975;-82
2021/10/13 08:54:43;;;;;;;9.38;5.03;;;;;;;7.92;82.71;100881.25;1790246;79;20951;-82
2021/10/13 08:57:20;;;;;;;8.48;4.37;;;;;;;8.14;82.71;100872.98;1790452;79;21037;-82
2021/10/13 08:59:48;;;;;;;12.00;6.10;;;;;;;8.14;82.71;100872.98;1790025;79;21408;-82
2021/10/13 09:02:15;;;;;;;10.55;3.55;;;;;;;8.45;82.70;100878.94;1790423;79;21027;-83
2021/10/13 09:05:00;;;;;;;5.87;3.70;;;;;;;8.69;82.62;100876.62;1790061;79;21499;-82
2021/10/13 09:07:26;;;;;;;12.20;4.50;;;;;;;8.72;82.42;100875.51;1772979;80;21250;-82
2021/10/13 09:09:52;;;;;;;9.93;5.72;;;;;;;8.81;82.32;100876.79;1790282;79;21026;-82
2021/10/13 09:12:32;;;;;;;8.85;3.22;;;;;;;8.89;82.22;100873.40;1790370;79;20962;-82
2021/10/13 09:15:12;;;;;;;7.25;4.35;;;;;;;8.91;82.11;100872.26;1789500;79;21530;-82
2021/10/13 09:17:57;;;;;;;7.80;2.95;;;;;;;9.07;82.08;100871.63;1790168;79;20992;-82
2021/10/13 09:20:26;;;;;;;4.95;2.50;;;;;;;9.22;81.90;100875.44;1790325;79;21705;-82
2021/10/13 09:23:19;;;;;;;13.20;5.28;;;;;;;9.24;81.66;100870.83;1790784;79;21601;-82
2021/10/13 09:26:07;;;;;;;22.77;10.05;;;;;;;9.37;81.63;100868.63;1790360;79;21066;-81
2021/10/13 09:28:33;;;;;;;12.18;4.80;;;;;;;9.51;81.49;100865.44;1790229;79;21078;-81
2021/10/13 09:31:16;;;;;;;5.58;2.80;;;;;;;9.70;81.37;100866.28;1790403;80;21592;-81
2021/10/13 09:34:03;;;;;;;6.28;2.85;;;;;;;9.70;81.37;100866.28;1790050;79;21163;-81
2021/10/13 09:36:43;;;;;;;12.53;3.37;;;;;;;9.87;81.12;100862.77;1793475;79;21046;-82
2021/10/13 09:39:17;;;;;;;6.22;2.65;;;;;;;9.82;80.86;100868.55;1799156;79;20978;-82
2021/10/13 09:42:02;;;;;;;11.30;4.97;;;;;;;9.90;80.81;100870.45;1799547;79;20979;-81
2021/10/13 09:44:39;;;;;;;11.12;4.40;;;;;;;9.84;80.60;100867.92;1799176;79;21562;-82
2021/10/13 09:47:07;;;;;;;8.53;3.35;;;;;;;9.95;80.50;100870.84;1799164;79;21228;-82
2021/10/13 09:49:40;;;;;;;11.15;3.58;;;;;;;10.03;80.29;100870.87;1798521;79;21023;-82
2021/10/13 09:52:14;;;;;;;8.60;4.95;;;;;;;10.08;80.20;100873.93;1798791;79;21034;-82
2021/10/13 09:54:42;;;;;;;12.65;6.10;;;;;;;10.28;80.08;100874.10;1798319;79;21037;-82
2021/10/13 09:57:24;;;;;;;12.35;5.55;;;;;;;10.27;79.88;100880.45;1798843;79;20994;-83
2021/10/13 10:00:12;;;;;;;8.68;4.20;;;;;;;10.30;79.75;100888.13;1798632;79;21125;-82
2021/10/13 10:02:42;;;;;;;6.17;3.75;;;;;;;10.39;79.65;100884.52;1798929;79;21054;-83
2021/10/13 10:05:13;;;;;;;25.82;11.83;;;;;;;10.51;79.50;100880.60;1798928;79;21042;-82
2021/10/13 10:07:47;;;;;;;11.20;4.40;;;;;;;10.62;79.34;100882.66;1798814;79;21507;-82
2021/10/13 10:10:14;;;;;;;7.55;3.47;;;;;;;10.56;79.11;100883.27;1797567;79;20975;-82
2021/10/13 10:13:08;;;;;;;9.23;3.55;;;;;;;10.48;78.90;100876.89;1798666;79;21236;-83
2021/10/13 10:15:38;;;;;;;9.25;4.25;;;;;;;10.50;78.71;100888.25;1789232;79;21148;-82
2021/10/13 10:18:35;;;;;;;12.03;4.60;;;;;;;10.57;78.55;100885.78;1779239;78;26610;-81
2021/10/13 10:21:21;;;;;;;10.00;2.92;;;;;;;10.65;78.32;100896.52;1733773;81;20986;-82
2021/10/13 10:23:50;;;;;;;11.73;4.37;;;;;;;10.67;78.16;100899.00;1759196;80;21778;-82
2021/10/13 10:26:29;;;;;;;4.22;2.60;;;;;;;10.56;77.93;100907.27;1776613;80;21947;-84
2021/10/13 10:31:44;;;;;;;8.77;3.20;;;;;;;10.26;77.56;100914.75;1816506;77;27884;-84
2021/10/13 10:34:16;;;;;;;6.17;2.92;;;;;;;10.10;77.33;100909.77;1812743;78;21092;-84
2021/10/13 10:36:48;;;;;;;11.05;3.80;;;;;;;10.06;77.27;100907.06;1814393;77;21143;-84
2021/10/13 10:39:16;;;;;;;6.55;2.98;;;;;;;10.09;77.16;100900.92;1807515;78;21029;-84
2021/10/13 10:41:52;;;;;;;8.25;3.70;;;;;;;10.12;77.08;100907.28;1750215;81;21647;-83
2021/10/13 10:44:35;;;;;;;5.47;2.42;;;;;;;10.20;77.02;100903.88;1756872;80;21100;-83
2021/10/13 10:47:06;;;;;;;4.70;3.20;;;;;;;10.31;76.89;100903.11;1741900;81;21053;-83
2021/10/13 10:49:50;;;;;;;7.03;2.15;;;;;;;10.27;76.71;100908.44;1737445;81;21197;-85
2021/10/13 10:52:24;;;;;;;5.37;1.72;;;;;;;10.29;76.52;100912.26;1744128;81;20940;-84
2021/10/13 10:55:01;;;;;;;3.75;1.98;;;;;;;10.29;76.36;100917.10;1747864;81;21051;-82
2021/10/13 10:57:46;;;;;;;7.12;2.58;;;;;;;10.34;76.31;100912.16;1746776;81;21059;-83
2021/10/13 11:00:27;;;;;;;5.92;3.15;;;;;;;10.33;76.16;100918.47;1743238;81;21067;-83
2021/10/13 11:03:17;;;;;;;7.15;2.42;;;;;;;10.46;76.15;100912.71;1733889;81;21453;-84
2021/10/13 11:05:44;;;;;;;33.53;17.32;;;;;;;10.45;76.02;100914.54;1741713;81;20984;-84
2021/10/13 11:08:10;;;;;;;19.57;8.73;;;;;;;10.46;75.92;100922.89;1718885;81;21029;-84
2021/10/13 11:10:36;;;;;;;15.10;4.70;;;;;;;10.48;75.79;100922.22;1742866;81;20991;-83
2021/10/13 11:13:03;;;;;;;4.40;2.45;;;;;;;10.46;75.64;100922.05;1743615;81;21438;-83
2021/10/13 11:15:30;;;;;;;3.50;2.30;;;;;;;10.44;75.51;100921.37;1738596;82;21768;-83
2021/10/13 11:17:57;;;;;;;6.67;1.80;;;;;;;10.56;75.47;100918.77;1737176;82;20991;-83
2021/10/13 11:20:24;;;;;;;10.25;3.85;;;;;;;10.54;75.30;100931.44;1736653;82;21128;-83
2021/10/13 11:22:57;;;;;;;10.23;3.95;;;;;;;10.46;75.20;100926.89;1735715;82;21053;-84
2021/10/13 11:25:24;;;;;;;25.43;13.75;;;;;;;10.40;75.08;100932.85;1737255;82;21106;-83
2021/10/13 11:28:08;;;;;;;11.73;7.72;;;;;;;10.40;75.02;100933.34;1735979;82;21435;-83
2021/10/13 11:30:46;;;;;;;7.83;2.17;;;;;;;10.38;74.89;100929.48;1706358;82;21070;-82
2021/10/13 11:33:15;;;;;;;7.83;2.70;;;;;;;10.41;74.90;100925.17;1742116;82;21067;-82
2021/10/13 11:35:41;;;;;;;5.22;2.10;;;;;;;10.49;74.81;100918.57;1735866;82;21654;-82
2021/10/13 11:38:07;;;;;;;4.33;1.70;;;;;;;10.62;74.71;100926.66;1743184;82;21063;-83
2021/10/13 11:40:34;;;;;;;5.72;2.85;;;;;;;10.66;74.55;100929.36;1734494;82;21122;-83
2021/10/13 11:43:10;;;;;;;3.85;2.30;;;;;;;10.72;74.42;100929.56;1734131;82;21164;-84
2021/10/13 11:45:36;;;;;;;4.92;2.12;;;;;;;10.70;74.21;100925.36;1734111;82;21543;-83
2021/10/13 11:48:03;;;;;;;6.30;1.60;;;;;;;10.77;74.17;100923.73;1714719;82;21070;-83
2021/10/13 11:50:30;;;;;;;3.20;2.22;;;;;;;10.88;74.04;100927.47;1733858;82;21007;-83
2021/10/13 11:52:58;;;;;;;7.47;2.98;;;;;;;10.93;73.90;100926.50;1737349;82;21559;-84
2021/10/13 11:55:30;;;;;;;11.05;8.33;;;;;;;10.95;73.80;100927.17;1721653;83;21117;-83
2021/10/13 11:57:59;;;;;;;10.15;6.15;;;;;;;10.90;73.69;100923.66;1720155;83;21039;-84
2021/10/13 12:00:30;;;;;;;6.50;3.67;;;;;;;10.84;73.59;100922.10;1719994;83;20997;-83
2021/10/13 12:03:09;;;;;;;6.50;2.30;;;;;;;10.73;73.46;100919.73;1716011;82;21532;-83
2021/10/13 12:05:50;;;;;;;7.92;3.90;;;;;;;10.65;73.38;100911.67;1721490;83;21673;-83
2021/10/13 12:08:19;;;;;;;23.35;11.93;;;;;;;10.77;73.36;100911.72;1724707;83;21611;-83
2021/10/13 12:10:58;;;;;;;10.20;6.25;;;;;;;10.97;73.19;100914.52;1717490;83;21084;-84
2021/10/13 12:13:29;;;;;;;6.00;3.15;;;;;;;11.14;73.02;100912.25;1723071;83;22185;-83
2021/10/13 12:16:04;;;;;;;5.53;2.92;;;;;;;11.24;72.78;100909.45;1721541;83;21082;-83
2021/10/13 12:18:45;;;;;;;3.50;1.35;;;;;;;11.35;72.61;100909.16;1725566;83;21167;-83
2021/10/13 12:21:17;;;;;;;7.05;1.42;;;;;;;11.47;72.39;100912.68;1721266;82;21619;-83
2021/10/13 12:23:54;;;;;;;7.50;2.67;;;;;;;11.60;72.16;100914.06;1719431;83;21080;-83
2021/10/13 12:26:29;;;;;;;3.95;1.95;;;;;;;11.69;71.88;100913.06;1715027;83;22163;-83
2021/10/13 12:28:57;;;;;;;5.78;2.20;;;;;;;11.77;71.68;100906.44;1704599;83;21042;-83
2021/10/13 12:31:26;;;;;;;7.85;3.50;;;;;;;11.79;71.42;100909.27;1734922;82;21188;-82